sensor_id;sensor_type;location;lat;lon;timestamp;temperature;humidity
18365;DHT22;9309;52.126;11.616;2022-08-01T00:02:00;20.50;70.00
18365;DHT22;9309;52.126;11.616;2022-08-01T00:04:27;20.30;71.00
18365;DHT22;9309;52.126;11.616;2022-08-01T00:06:54;20.30;70.80
18365;DHT22;9309;52.126;11.616;2022-08-01T00:09:20;20.30;70.80
18365;DHT22;9309;52.126;11.616;2022-08-01T00:11:47;20.20;71.20
18365;DHT22;9309;52.126;11.616;2022-08-01T00:14:15;20.10;71.60
18365;DHT22;9309;52.126;11.616;2022-08-01T00:16:42;20.20;71.50
18365;DHT22;9309;52.126;11.616;2022-08-01T00:19:08;20.30;71.30
18365;DHT22;9309;52.126;11.616;2022-08-01T00:21:35;20.30;71.30
18365;DHT22;9309;52.126;11.616;2022-08-01T00:24:02;20.40;71.40
18365;DHT22;9309;52.126;11.616;2022-08-01T00:26:29;20.20;72.20
18365;DHT22;9309;52.126;11.616;2022-08-01T00:28:55;20.20;72.40
18365;DHT22;9309;52.126;11.616;2022-08-01T00:31:23;20.10;73.00
18365;DHT22;9309;52.126;11.616;2022-08-01T00:33:50;20.20;72.80
18365;DHT22;9309;52.126;11.616;2022-08-01T00:36:17;20.20;73.00
18365;DHT22;9309;52.126;11.616;2022-08-01T00:38:44;20.10;73.30
18365;DHT22;9309;52.126;11.616;2022-08-01T00:41:10;20.10;73.70
18365;DHT22;9309;52.126;11.616;2022-08-01T00:43:37;20.10;74.00
18365;DHT22;9309;52.126;11.616;2022-08-01T00:46:04;20.00;74.60
18365;DHT22;9309;52.126;11.616;2022-08-01T00:48:32;20.00;74.30
18365;DHT22;9309;52.126;11.616;2022-08-01T00:50:59;20.00;74.50
18365;DHT22;9309;52.126;11.616;2022-08-01T00:53:25;20.10;74.50
18365;DHT22;9309;52.126;11.616;2022-08-01T00:55:53;20.00;75.10
18365;DHT22;9309;52.126;11.616;2022-08-01T00:58:20;20.00;75.10
18365;DHT22;9309;52.126;11.616;2022-08-01T01:00:47;20.00;75.40
18365;DHT22;9309;52.126;11.616;2022-08-01T01:03:13;20.00;75.50
18365;DHT22;9309;52.126;11.616;2022-08-01T01:05:50;19.90;76.20
18365;DHT22;9309;52.126;11.616;2022-08-01T01:08:24;20.00;75.80
18365;DHT22;9309;52.126;11.616;2022-08-01T01:10:56;19.90;76.40
18365;DHT22;9309;52.126;11.616;2022-08-01T01:13:31;19.90;76.40
18365;DHT22;9309;52.126;11.616;2022-08-01T01:16:02;19.90;76.80
18365;DHT22;9309;52.126;11.616;2022-08-01T01:18:34;19.80;77.40
18365;DHT22;9309;52.126;11.616;2022-08-01T01:21:08;19.90;76.90
18365;DHT22;9309;52.126;11.616;2022-08-01T01:23:46;19.80;77.30
18365;DHT22;9309;52.126;11.616;2022-08-01T01:26:39;20.00;77.00
18365;DHT22;9309;52.126;11.616;2022-08-01T01:29:13;20.00;76.50
18365;DHT22;9309;52.126;11.616;2022-08-01T01:31:44;20.00;76.90
18365;DHT22;9309;52.126;11.616;2022-08-01T01:34:13;20.00;77.00
18365;DHT22;9309;52.126;11.616;2022-08-01T01:36:43;20.00;77.10
18365;DHT22;9309;52.126;11.616;2022-08-01T01:39:10;19.90;77.30
18365;DHT22;9309;52.126;11.616;2022-08-01T01:41:38;19.90;77.40
18365;DHT22;9309;52.126;11.616;2022-08-01T01:44:06;20.00;77.40
18365;DHT22;9309;52.126;11.616;2022-08-01T01:46:35;20.00;77.20
18365;DHT22;9309;52.126;11.616;2022-08-01T01:49:03;20.00;77.50
18365;DHT22;9309;52.126;11.616;2022-08-01T01:51:31;20.00;77.40
18365;DHT22;9309;52.126;11.616;2022-08-01T01:53:59;20.00;77.30
18365;DHT22;9309;52.126;11.616;2022-08-01T01:56:28;20.00;77.60
18365;DHT22;9309;52.126;11.616;2022-08-01T01:58:59;20.10;77.10
18365;DHT22;9309;52.126;11.616;2022-08-01T02:01:29;20.00;77.80
18365;DHT22;9309;52.126;11.616;2022-08-01T02:04:02;20.20;77.20
18365;DHT22;9309;52.126;11.616;2022-08-01T02:06:31;20.10;77.30
18365;DHT22;9309;52.126;11.616;2022-08-01T02:09:01;20.20;77.10
18365;DHT22;9309;52.126;11.616;2022-08-01T02:11:28;20.30;76.90
18365;DHT22;9309;52.126;11.616;2022-08-01T02:13:57;20.20;76.80
18365;DHT22;9309;52.126;11.616;2022-08-01T02:16:26;20.10;77.20
18365;DHT22;9309;52.126;11.616;2022-08-01T02:18:53;20.10;77.10
18365;DHT22;9309;52.126;11.616;2022-08-01T02:21:26;20.10;77.60
18365;DHT22;9309;52.126;11.616;2022-08-01T02:23:55;20.00;78.20
18365;DHT22;9309;52.126;11.616;2022-08-01T02:26:27;20.10;77.80
18365;DHT22;9309;52.126;11.616;2022-08-01T02:28:58;19.90;78.80
18365;DHT22;9309;52.126;11.616;2022-08-01T02:31:26;20.00;78.40
18365;DHT22;9309;52.126;11.616;2022-08-01T02:34:00;19.90;78.70
18365;DHT22;9309;52.126;11.616;2022-08-01T02:36:32;19.90;78.70
18365;DHT22;9309;52.126;11.616;2022-08-01T02:39:02;19.90;78.90
18365;DHT22;9309;52.126;11.616;2022-08-01T02:41:30;20.00;78.60
18365;DHT22;9309;52.126;11.616;2022-08-01T02:43:59;20.00;78.70
18365;DHT22;9309;52.126;11.616;2022-08-01T02:46:31;20.00;78.90
18365;DHT22;9309;52.126;11.616;2022-08-01T02:49:02;20.10;78.50
18365;DHT22;9309;52.126;11.616;2022-08-01T02:51:31;20.10;78.20
18365;DHT22;9309;52.126;11.616;2022-08-01T02:54:00;19.90;79.10
18365;DHT22;9309;52.126;11.616;2022-08-01T02:56:29;20.00;78.60
18365;DHT22;9309;52.126;11.616;2022-08-01T02:59:03;20.00;78.60
18365;DHT22;9309;52.126;11.616;2022-08-01T03:01:32;20.00;79.00
18365;DHT22;9309;52.126;11.616;2022-08-01T03:04:00;20.00;78.60
18365;DHT22;9309;52.126;11.616;2022-08-01T03:06:28;20.00;78.90
18365;DHT22;9309;52.126;11.616;2022-08-01T03:08:57;20.00;79.10
18365;DHT22;9309;52.126;11.616;2022-08-01T03:11:26;20.00;79.10
18365;DHT22;9309;52.126;11.616;2022-08-01T03:13:55;20.00;78.80
18365;DHT22;9309;52.126;11.616;2022-08-01T03:16:24;20.00;78.90
18365;DHT22;9309;52.126;11.616;2022-08-01T03:18:53;20.10;78.50
18365;DHT22;9309;52.126;11.616;2022-08-01T03:21:22;20.10;78.70
18365;DHT22;9309;52.126;11.616;2022-08-01T03:23:50;20.10;78.50
18365;DHT22;9309;52.126;11.616;2022-08-01T03:26:26;20.10;78.90
18365;DHT22;9309;52.126;11.616;2022-08-01T03:28:58;20.20;78.60
18365;DHT22;9309;52.126;11.616;2022-08-01T03:31:26;20.10;79.90
18365;DHT22;9309;52.126;11.616;2022-08-01T03:33:54;19.90;81.60
18365;DHT22;9309;52.126;11.616;2022-08-01T03:36:25;19.70;83.50
18365;DHT22;9309;52.126;11.616;2022-08-01T03:38:57;19.60;83.80
18365;DHT22;9309;52.126;11.616;2022-08-01T03:41:29;19.50;84.80
18365;DHT22;9309;52.126;11.616;2022-08-01T03:44:03;19.40;85.80
18365;DHT22;9309;52.126;11.616;2022-08-01T03:46:36;19.40;86.60
18365;DHT22;9309;52.126;11.616;2022-08-01T03:49:10;19.50;85.80
18365;DHT22;9309;52.126;11.616;2022-08-01T03:51:38;19.60;85.10
18365;DHT22;9309;52.126;11.616;2022-08-01T03:54:06;19.70;85.00
18365;DHT22;9309;52.126;11.616;2022-08-01T03:56:37;19.60;85.10
18365;DHT22;9309;52.126;11.616;2022-08-01T03:59:04;19.60;84.70
18365;DHT22;9309;52.126;11.616;2022-08-01T04:01:31;19.70;84.40
18365;DHT22;9309;52.126;11.616;2022-08-01T04:04:00;19.60;85.30
18365;DHT22;9309;52.126;11.616;2022-08-01T04:06:27;19.80;85.10
18365;DHT22;9309;52.126;11.616;2022-08-01T04:08:54;19.90;84.50
18365;DHT22;9309;52.126;11.616;2022-08-01T04:11:24;19.90;84.00
18365;DHT22;9309;52.126;11.616;2022-08-01T04:13:54;20.00;83.70
18365;DHT22;9309;52.126;11.616;2022-08-01T04:16:21;20.00;83.10
18365;DHT22;9309;52.126;11.616;2022-08-01T04:18:48;20.00;83.20
18365;DHT22;9309;52.126;11.616;2022-08-01T04:21:18;20.10;82.50
18365;DHT22;9309;52.126;11.616;2022-08-01T04:23:46;20.00;82.90
18365;DHT22;9309;52.126;11.616;2022-08-01T04:26:14;20.00;82.50
18365;DHT22;9309;52.126;11.616;2022-08-01T04:28:42;19.80;83.30
18365;DHT22;9309;52.126;11.616;2022-08-01T04:31:12;19.90;82.50
18365;DHT22;9309;52.126;11.616;2022-08-01T04:33:44;20.00;82.60
18365;DHT22;9309;52.126;11.616;2022-08-01T04:36:12;19.90;82.70
18365;DHT22;9309;52.126;11.616;2022-08-01T04:38:42;19.90;83.00
18365;DHT22;9309;52.126;11.616;2022-08-01T04:41:13;20.00;82.20
18365;DHT22;9309;52.126;11.616;2022-08-01T04:43:40;20.10;81.90
18365;DHT22;9309;52.126;11.616;2022-08-01T04:46:08;20.10;81.40
18365;DHT22;9309;52.126;11.616;2022-08-01T04:48:38;20.20;81.30
18365;DHT22;9309;52.126;11.616;2022-08-01T04:51:11;20.20;81.10
18365;DHT22;9309;52.126;11.616;2022-08-01T04:53:38;20.20;81.10
18365;DHT22;9309;52.126;11.616;2022-08-01T04:56:05;20.20;81.40
18365;DHT22;9309;52.126;11.616;2022-08-01T04:58:32;20.20;81.10
18365;DHT22;9309;52.126;11.616;2022-08-01T05:00:59;19.90;82.10
18365;DHT22;9309;52.126;11.616;2022-08-01T05:03:26;20.00;82.20
18365;DHT22;9309;52.126;11.616;2022-08-01T05:05:54;20.00;81.90
18365;DHT22;9309;52.126;11.616;2022-08-01T05:08:20;20.00;82.00
18365;DHT22;9309;52.126;11.616;2022-08-01T05:10:47;20.10;81.60
18365;DHT22;9309;52.126;11.616;2022-08-01T05:13:14;20.10;81.70
18365;DHT22;9309;52.126;11.616;2022-08-01T05:15:41;20.30;80.60
18365;DHT22;9309;52.126;11.616;2022-08-01T05:18:07;20.20;80.80
18365;DHT22;9309;52.126;11.616;2022-08-01T05:20:35;20.30;80.70
18365;DHT22;9309;52.126;11.616;2022-08-01T05:23:03;20.20;81.20
18365;DHT22;9309;52.126;11.616;2022-08-01T05:25:30;20.20;81.90
18365;DHT22;9309;52.126;11.616;2022-08-01T05:27:57;20.20;82.90
18365;DHT22;9309;52.126;11.616;2022-08-01T05:30:24;20.10;83.20
18365;DHT22;9309;52.126;11.616;2022-08-01T05:32:50;20.00;84.00
18365;DHT22;9309;52.126;11.616;2022-08-01T05:35:17;19.80;84.90
18365;DHT22;9309;52.126;11.616;2022-08-01T05:37:44;19.70;85.50
18365;DHT22;9309;52.126;11.616;2022-08-01T05:40:12;19.70;86.10
18365;DHT22;9309;52.126;11.616;2022-08-01T05:42:39;19.60;86.90
18365;DHT22;9309;52.126;11.616;2022-08-01T05:45:06;19.70;86.80
18365;DHT22;9309;52.126;11.616;2022-08-01T05:47:33;19.70;86.60
18365;DHT22;9309;52.126;11.616;2022-08-01T05:49:59;19.70;85.70
18365;DHT22;9309;52.126;11.616;2022-08-01T05:52:26;19.70;85.50
18365;DHT22;9309;52.126;11.616;2022-08-01T05:54:54;19.80;85.80
18365;DHT22;9309;52.126;11.616;2022-08-01T05:57:22;19.80;85.10
18365;DHT22;9309;52.126;11.616;2022-08-01T05:59:48;19.80;85.20
18365;DHT22;9309;52.126;11.616;2022-08-01T06:02:15;20.00;84.00
18365;DHT22;9309;52.126;11.616;2022-08-01T06:04:42;20.20;82.60
18365;DHT22;9309;52.126;11.616;2022-08-01T06:07:09;20.30;81.70
18365;DHT22;9309;52.126;11.616;2022-08-01T06:09:35;20.20;81.00
18365;DHT22;9309;52.126;11.616;2022-08-01T06:12:03;20.20;81.10
18365;DHT22;9309;52.126;11.616;2022-08-01T06:14:31;20.10;81.60
18365;DHT22;9309;52.126;11.616;2022-08-01T06:16:58;20.20;80.20
18365;DHT22;9309;52.126;11.616;2022-08-01T06:19:24;20.10;80.50
18365;DHT22;9309;52.126;11.616;2022-08-01T06:21:51;20.00;81.00
18365;DHT22;9309;52.126;11.616;2022-08-01T06:24:18;20.20;80.30
18365;DHT22;9309;52.126;11.616;2022-08-01T06:26:45;20.20;80.20
18365;DHT22;9309;52.126;11.616;2022-08-01T06:29:12;20.20;79.90
18365;DHT22;9309;52.126;11.616;2022-08-01T06:31:40;20.40;78.40
18365;DHT22;9309;52.126;11.616;2022-08-01T06:34:06;20.40;78.80
18365;DHT22;9309;52.126;11.616;2022-08-01T06:36:33;20.50;78.50
18365;DHT22;9309;52.126;11.616;2022-08-01T06:39:00;20.70;77.70
18365;DHT22;9309;52.126;11.616;2022-08-01T06:41:26;20.60;78.40
18365;DHT22;9309;52.126;11.616;2022-08-01T06:43:53;20.60;78.60
18365;DHT22;9309;52.126;11.616;2022-08-01T06:46:20;20.90;76.30
18365;DHT22;9309;52.126;11.616;2022-08-01T06:48:48;20.90;76.60
18365;DHT22;9309;52.126;11.616;2022-08-01T06:51:14;21.00;75.90
18365;DHT22;9309;52.126;11.616;2022-08-01T06:53:45;21.10;74.50
18365;DHT22;9309;52.126;11.616;2022-08-01T06:56:11;21.20;73.70
18365;DHT22;9309;52.126;11.616;2022-08-01T06:58:38;21.20;74.20
18365;DHT22;9309;52.126;11.616;2022-08-01T07:01:05;21.20;73.80
18365;DHT22;9309;52.126;11.616;2022-08-01T07:03:32;21.20;73.10
18365;DHT22;9309;52.126;11.616;2022-08-01T07:06:01;21.30;72.80
18365;DHT22;9309;52.126;11.616;2022-08-01T07:08:28;21.20;73.60
18365;DHT22;9309;52.126;11.616;2022-08-01T07:10:55;21.40;72.20
18365;DHT22;9309;52.126;11.616;2022-08-01T07:13:25;21.50;72.20
18365;DHT22;9309;52.126;11.616;2022-08-01T07:15:52;21.30;73.10
18365;DHT22;9309;52.126;11.616;2022-08-01T07:18:19;21.00;73.50
18365;DHT22;9309;52.126;11.616;2022-08-01T07:20:46;21.00;72.40
18365;DHT22;9309;52.126;11.616;2022-08-01T07:23:14;21.10;73.00
18365;DHT22;9309;52.126;11.616;2022-08-01T07:25:41;21.30;71.20
18365;DHT22;9309;52.126;11.616;2022-08-01T07:28:08;21.60;69.90
18365;DHT22;9309;52.126;11.616;2022-08-01T07:30:35;21.70;69.90
18365;DHT22;9309;52.126;11.616;2022-08-01T07:33:02;21.50;70.70
18365;DHT22;9309;52.126;11.616;2022-08-01T07:35:29;21.60;70.30
18365;DHT22;9309;52.126;11.616;2022-08-01T07:37:55;21.50;70.20
18365;DHT22;9309;52.126;11.616;2022-08-01T07:40:23;21.60;68.10
18365;DHT22;9309;52.126;11.616;2022-08-01T07:42:50;21.70;68.50
18365;DHT22;9309;52.126;11.616;2022-08-01T07:45:17;21.70;67.90
18365;DHT22;9309;52.126;11.616;2022-08-01T07:47:44;21.60;68.60
18365;DHT22;9309;52.126;11.616;2022-08-01T07:50:12;21.50;68.90
18365;DHT22;9309;52.126;11.616;2022-08-01T07:52:39;21.40;69.50
18365;DHT22;9309;52.126;11.616;2022-08-01T07:55:07;21.30;72.00
18365;DHT22;9309;52.126;11.616;2022-08-01T07:57:35;21.30;73.00
18365;DHT22;9309;52.126;11.616;2022-08-01T08:00:04;21.00;76.00
18365;DHT22;9309;52.126;11.616;2022-08-01T08:02:32;20.40;79.20
18365;DHT22;9309;52.126;11.616;2022-08-01T08:04:58;19.90;81.50
18365;DHT22;9309;52.126;11.616;2022-08-01T08:07:25;19.50;81.80
18365;DHT22;9309;52.126;11.616;2022-08-01T08:09:52;19.10;85.40
18365;DHT22;9309;52.126;11.616;2022-08-01T08:12:18;19.00;86.00
18365;DHT22;9309;52.126;11.616;2022-08-01T08:14:46;19.00;87.20
18365;DHT22;9309;52.126;11.616;2022-08-01T08:17:13;19.10;87.10
18365;DHT22;9309;52.126;11.616;2022-08-01T08:19:40;19.30;85.90
18365;DHT22;9309;52.126;11.616;2022-08-01T08:22:07;19.40;84.90
18365;DHT22;9309;52.126;11.616;2022-08-01T08:24:34;19.50;85.10
18365;DHT22;9309;52.126;11.616;2022-08-01T08:27:02;19.50;85.10
18365;DHT22;9309;52.126;11.616;2022-08-01T08:29:30;19.80;84.40
18365;DHT22;9309;52.126;11.616;2022-08-01T08:31:59;20.10;83.60
18365;DHT22;9309;52.126;11.616;2022-08-01T08:34:27;20.30;82.60
18365;DHT22;9309;52.126;11.616;2022-08-01T08:36:54;20.60;80.00
18365;DHT22;9309;52.126;11.616;2022-08-01T08:39:22;20.80;80.20
18365;DHT22;9309;52.126;11.616;2022-08-01T08:41:49;21.10;77.90
18365;DHT22;9309;52.126;11.616;2022-08-01T08:44:16;21.00;77.80
18365;DHT22;9309;52.126;11.616;2022-08-01T08:46:47;20.90;77.70
18365;DHT22;9309;52.126;11.616;2022-08-01T08:49:18;20.80;79.40
18365;DHT22;9309;52.126;11.616;2022-08-01T08:51:48;20.70;79.50
18365;DHT22;9309;52.126;11.616;2022-08-01T08:54:16;20.70;78.20
18365;DHT22;9309;52.126;11.616;2022-08-01T08:56:43;20.90;76.80
18365;DHT22;9309;52.126;11.616;2022-08-01T08:59:11;21.20;76.10
18365;DHT22;9309;52.126;11.616;2022-08-01T09:01:39;21.10;73.20
18365;DHT22;9309;52.126;11.616;2022-08-01T09:04:06;20.60;76.40
18365;DHT22;9309;52.126;11.616;2022-08-01T09:06:34;20.60;77.10
18365;DHT22;9309;52.126;11.616;2022-08-01T09:09:02;20.50;76.30
18365;DHT22;9309;52.126;11.616;2022-08-01T09:11:29;20.80;74.90
18365;DHT22;9309;52.126;11.616;2022-08-01T09:14:04;21.00;73.40
18365;DHT22;9309;52.126;11.616;2022-08-01T09:16:32;21.10;73.30
18365;DHT22;9309;52.126;11.616;2022-08-01T09:19:10;21.60;70.40
18365;DHT22;9309;52.126;11.616;2022-08-01T09:21:38;21.60;67.30
18365;DHT22;9309;52.126;11.616;2022-08-01T09:24:14;21.50;67.50
18365;DHT22;9309;52.126;11.616;2022-08-01T09:26:42;21.60;66.90
18365;DHT22;9309;52.126;11.616;2022-08-01T09:29:18;21.90;66.50
18365;DHT22;9309;52.126;11.616;2022-08-01T09:31:46;22.00;65.70
18365;DHT22;9309;52.126;11.616;2022-08-01T09:34:13;22.20;65.00
18365;DHT22;9309;52.126;11.616;2022-08-01T09:36:48;22.40;64.90
18365;DHT22;9309;52.126;11.616;2022-08-01T09:39:19;22.00;64.50
18365;DHT22;9309;52.126;11.616;2022-08-01T09:41:46;22.00;64.40
18365;DHT22;9309;52.126;11.616;2022-08-01T09:44:14;22.00;65.20
18365;DHT22;9309;52.126;11.616;2022-08-01T09:46:50;22.00;65.40
18365;DHT22;9309;52.126;11.616;2022-08-01T09:49:28;22.20;65.80
18365;DHT22;9309;52.126;11.616;2022-08-01T09:51:57;22.30;64.30
18365;DHT22;9309;52.126;11.616;2022-08-01T09:54:29;22.20;63.90
18365;DHT22;9309;52.126;11.616;2022-08-01T09:57:10;22.20;63.30
18365;DHT22;9309;52.126;11.616;2022-08-01T09:59:39;22.30;62.60
18365;DHT22;9309;52.126;11.616;2022-08-01T10:02:08;22.40;61.60
18365;DHT22;9309;52.126;11.616;2022-08-01T10:04:36;22.50;62.40
18365;DHT22;9309;52.126;11.616;2022-08-01T10:07:07;22.60;61.60
18365;DHT22;9309;52.126;11.616;2022-08-01T10:09:35;22.80;61.00
18365;DHT22;9309;52.126;11.616;2022-08-01T10:12:04;23.10;60.40
18365;DHT22;9309;52.126;11.616;2022-08-01T10:14:31;23.20;58.40
18365;DHT22;9309;52.126;11.616;2022-08-01T10:16:59;23.20;58.80
18365;DHT22;9309;52.126;11.616;2022-08-01T10:19:28;23.40;58.40
18365;DHT22;9309;52.126;11.616;2022-08-01T10:21:56;23.30;59.20
18365;DHT22;9309;52.126;11.616;2022-08-01T10:24:27;22.90;61.90
18365;DHT22;9309;52.126;11.616;2022-08-01T10:26:57;22.60;61.80
18365;DHT22;9309;52.126;11.616;2022-08-01T10:29:34;22.40;62.10
18365;DHT22;9309;52.126;11.616;2022-08-01T10:32:03;22.40;61.50
18365;DHT22;9309;52.126;11.616;2022-08-01T10:34:31;22.80;60.00
18365;DHT22;9309;52.126;11.616;2022-08-01T10:37:00;23.30;58.80
18365;DHT22;9309;52.126;11.616;2022-08-01T10:39:29;23.30;58.90
18365;DHT22;9309;52.126;11.616;2022-08-01T10:41:56;23.50;57.40
18365;DHT22;9309;52.126;11.616;2022-08-01T10:44:24;23.40;56.90
18365;DHT22;9309;52.126;11.616;2022-08-01T10:46:55;23.30;57.90
18365;DHT22;9309;52.126;11.616;2022-08-01T10:49:26;23.50;57.80
18365;DHT22;9309;52.126;11.616;2022-08-01T10:51:55;23.80;56.20
18365;DHT22;9309;52.126;11.616;2022-08-01T10:54:25;24.20;56.00
18365;DHT22;9309;52.126;11.616;2022-08-01T10:56:54;24.40;55.20
18365;DHT22;9309;52.126;11.616;2022-08-01T10:59:23;24.70;53.60
18365;DHT22;9309;52.126;11.616;2022-08-01T11:01:57;24.60;54.50
18365;DHT22;9309;52.126;11.616;2022-08-01T11:04:33;24.40;54.30
18365;DHT22;9309;52.126;11.616;2022-08-01T11:07:05;24.00;55.70
18365;DHT22;9309;52.126;11.616;2022-08-01T11:09:40;24.00;55.80
18365;DHT22;9309;52.126;11.616;2022-08-01T11:12:11;24.10;56.30
18365;DHT22;9309;52.126;11.616;2022-08-01T11:15:18;23.90;56.40
18365;DHT22;9309;52.126;11.616;2022-08-01T11:17:51;23.40;58.00
18365;DHT22;9309;52.126;11.616;2022-08-01T11:20:19;23.10;58.30
18365;DHT22;9309;52.126;11.616;2022-08-01T11:26:20;23.00;58.90
18365;DHT22;9309;52.126;11.616;2022-08-01T11:29:13;23.30;58.50
18365;DHT22;9309;52.126;11.616;2022-08-01T11:31:41;23.70;57.50
18365;DHT22;9309;52.126;11.616;2022-08-01T11:34:08;23.70;57.80
18365;DHT22;9309;52.126;11.616;2022-08-01T11:36:34;23.60;57.90
18365;DHT22;9309;52.126;11.616;2022-08-01T11:39:13;23.70;57.20
18365;DHT22;9309;52.126;11.616;2022-08-01T11:41:41;23.70;57.20
18365;DHT22;9309;52.126;11.616;2022-08-01T11:44:11;24.00;56.60
18365;DHT22;9309;52.126;11.616;2022-08-01T11:46:56;24.70;54.20
18365;DHT22;9309;52.126;11.616;2022-08-01T11:49:46;25.00;53.90
18365;DHT22;9309;52.126;11.616;2022-08-01T11:52:16;26.30;51.90
18365;DHT22;9309;52.126;11.616;2022-08-01T11:54:46;27.40;47.40
18365;DHT22;9309;52.126;11.616;2022-08-01T11:57:14;27.90;46.60
18365;DHT22;9309;52.126;11.616;2022-08-01T11:59:44;29.30;43.20
18365;DHT22;9309;52.126;11.616;2022-08-01T12:02:21;29.20;43.30
18365;DHT22;9309;52.126;11.616;2022-08-01T12:04:54;28.80;44.10
18365;DHT22;9309;52.126;11.616;2022-08-01T12:07:22;28.60;43.70
18365;DHT22;9309;52.126;11.616;2022-08-01T12:09:57;28.80;43.20
18365;DHT22;9309;52.126;11.616;2022-08-01T12:12:24;28.20;44.10
18365;DHT22;9309;52.126;11.616;2022-08-01T12:14:57;29.60;41.90
18365;DHT22;9309;52.126;11.616;2022-08-01T12:17:42;30.90;39.20
18365;DHT22;9309;52.126;11.616;2022-08-01T12:20:11;32.90;36.70
18365;DHT22;9309;52.126;11.616;2022-08-01T12:22:38;32.80;36.90
18365;DHT22;9309;52.126;11.616;2022-08-01T12:25:06;30.40;40.60
18365;DHT22;9309;52.126;11.616;2022-08-01T12:27:34;28.90;43.40
18365;DHT22;9309;52.126;11.616;2022-08-01T12:30:05;27.50;46.40
18365;DHT22;9309;52.126;11.616;2022-08-01T12:32:33;26.40;49.70
18365;DHT22;9309;52.126;11.616;2022-08-01T12:35:04;25.80;50.40
18365;DHT22;9309;52.126;11.616;2022-08-01T12:37:32;24.80;52.90
18365;DHT22;9309;52.126;11.616;2022-08-01T12:39:59;24.20;55.10
18365;DHT22;9309;52.126;11.616;2022-08-01T12:42:26;24.10;55.00
18365;DHT22;9309;52.126;11.616;2022-08-01T12:44:54;23.90;55.70
18365;DHT22;9309;52.126;11.616;2022-08-01T12:47:23;23.90;56.70
18365;DHT22;9309;52.126;11.616;2022-08-01T12:49:50;23.90;56.20
18365;DHT22;9309;52.126;11.616;2022-08-01T12:52:17;24.20;55.40
18365;DHT22;9309;52.126;11.616;2022-08-01T12:55:12;24.30;55.30
18365;DHT22;9309;52.126;11.616;2022-08-01T12:57:41;24.70;53.60
18365;DHT22;9309;52.126;11.616;2022-08-01T13:00:16;24.80;52.80
18365;DHT22;9309;52.126;11.616;2022-08-01T13:02:46;24.70;52.70
18365;DHT22;9309;52.126;11.616;2022-08-01T13:05:14;24.50;53.50
18365;DHT22;9309;52.126;11.616;2022-08-01T13:07:44;24.60;52.70
18365;DHT22;9309;52.126;11.616;2022-08-01T13:10:12;24.50;53.70
18365;DHT22;9309;52.126;11.616;2022-08-01T13:12:39;24.60;52.50
18365;DHT22;9309;52.126;11.616;2022-08-01T13:15:25;24.60;53.00
18365;DHT22;9309;52.126;11.616;2022-08-01T13:17:54;25.10;51.50
18365;DHT22;9309;52.126;11.616;2022-08-01T13:20:29;25.20;51.20
18365;DHT22;9309;52.126;11.616;2022-08-01T13:23:13;25.90;48.70
18365;DHT22;9309;52.126;11.616;2022-08-01T13:25:51;28.10;43.90
18365;DHT22;9309;52.126;11.616;2022-08-01T13:28:21;28.80;41.50
18365;DHT22;9309;52.126;11.616;2022-08-01T13:30:55;28.60;43.00
18365;DHT22;9309;52.126;11.616;2022-08-01T13:33:25;30.50;39.60
18365;DHT22;9309;52.126;11.616;2022-08-01T13:35:59;32.40;34.90
18365;DHT22;9309;52.126;11.616;2022-08-01T13:38:26;31.80;35.60
18365;DHT22;9309;52.126;11.616;2022-08-01T13:41:10;31.80;35.50
18365;DHT22;9309;52.126;11.616;2022-08-01T13:43:38;31.80;35.30
18365;DHT22;9309;52.126;11.616;2022-08-01T13:46:05;31.60;35.20
18365;DHT22;9309;52.126;11.616;2022-08-01T13:48:33;31.60;35.50
18365;DHT22;9309;52.126;11.616;2022-08-01T13:51:00;31.10;36.40
18365;DHT22;9309;52.126;11.616;2022-08-01T13:53:27;30.10;37.80
18365;DHT22;9309;52.126;11.616;2022-08-01T13:55:54;31.60;35.50
18365;DHT22;9309;52.126;11.616;2022-08-01T13:58:21;33.50;32.70
18365;DHT22;9309;52.126;11.616;2022-08-01T14:00:48;35.40;30.20
18365;DHT22;9309;52.126;11.616;2022-08-01T14:03:15;36.20;29.70
18365;DHT22;9309;52.126;11.616;2022-08-01T14:05:44;35.80;30.20
18365;DHT22;9309;52.126;11.616;2022-08-01T14:08:11;36.10;29.50
18365;DHT22;9309;52.126;11.616;2022-08-01T14:10:38;35.40;29.90
18365;DHT22;9309;52.126;11.616;2022-08-01T14:13:05;34.00;31.30
18365;DHT22;9309;52.126;11.616;2022-08-01T14:15:32;31.60;34.30
18365;DHT22;9309;52.126;11.616;2022-08-01T14:17:59;29.70;37.80
18365;DHT22;9309;52.126;11.616;2022-08-01T14:20:26;30.70;36.60
18365;DHT22;9309;52.126;11.616;2022-08-01T14:22:54;31.80;34.20
18365;DHT22;9309;52.126;11.616;2022-08-01T14:25:21;30.90;35.50
18365;DHT22;9309;52.126;11.616;2022-08-01T14:27:48;30.60;36.70
18365;DHT22;9309;52.126;11.616;2022-08-01T14:30:14;30.20;36.80
18365;DHT22;9309;52.126;11.616;2022-08-01T14:32:41;29.30;38.60
18365;DHT22;9309;52.126;11.616;2022-08-01T14:35:08;28.90;39.20
18365;DHT22;9309;52.126;11.616;2022-08-01T14:37:35;28.50;39.60
18365;DHT22;9309;52.126;11.616;2022-08-01T14:40:04;27.40;40.50
18365;DHT22;9309;52.126;11.616;2022-08-01T14:42:34;26.80;42.20
18365;DHT22;9309;52.126;11.616;2022-08-01T14:45:01;26.50;42.40
18365;DHT22;9309;52.126;11.616;2022-08-01T14:47:28;26.20;43.40
18365;DHT22;9309;52.126;11.616;2022-08-01T14:49:55;26.10;43.10
18365;DHT22;9309;52.126;11.616;2022-08-01T14:52:22;26.20;42.70
18365;DHT22;9309;52.126;11.616;2022-08-01T14:54:48;26.00;43.70
18365;DHT22;9309;52.126;11.616;2022-08-01T14:57:16;25.60;44.60
18365;DHT22;9309;52.126;11.616;2022-08-01T14:59:44;25.50;44.70
18365;DHT22;9309;52.126;11.616;2022-08-01T15:02:11;25.60;44.50
18365;DHT22;9309;52.126;11.616;2022-08-01T15:04:42;25.50;44.60
18365;DHT22;9309;52.126;11.616;2022-08-01T15:07:09;25.50;45.30
18365;DHT22;9309;52.126;11.616;2022-08-01T15:09:36;25.70;44.00
18365;DHT22;9309;52.126;11.616;2022-08-01T15:12:03;25.80;44.90
18365;DHT22;9309;52.126;11.616;2022-08-01T15:14:32;25.90;43.80
18365;DHT22;9309;52.126;11.616;2022-08-01T15:17:18;25.90;44.60
18365;DHT22;9309;52.126;11.616;2022-08-01T15:19:45;26.10;43.90
18365;DHT22;9309;52.126;11.616;2022-08-01T15:22:12;26.20;43.90
18365;DHT22;9309;52.126;11.616;2022-08-01T15:24:39;26.20;43.50
18365;DHT22;9309;52.126;11.616;2022-08-01T15:27:06;25.90;44.30
18365;DHT22;9309;52.126;11.616;2022-08-01T15:29:34;25.70;44.70
18365;DHT22;9309;52.126;11.616;2022-08-01T15:32:02;25.40;45.30
18365;DHT22;9309;52.126;11.616;2022-08-01T15:34:30;25.50;45.40
18365;DHT22;9309;52.126;11.616;2022-08-01T15:36:57;25.40;45.50
18365;DHT22;9309;52.126;11.616;2022-08-01T15:39:23;25.60;45.00
18365;DHT22;9309;52.126;11.616;2022-08-01T15:41:50;25.40;45.60
18365;DHT22;9309;52.126;11.616;2022-08-01T15:44:17;24.90;46.60
18365;DHT22;9309;52.126;11.616;2022-08-01T15:46:47;24.80;46.00